createdAt,value
2024-04-15T00:00:15.392Z,97459.91
2024-04-15T00:03:20.751Z,97457.19
2024-04-15T00:06:23.423Z,97450.81
2024-04-15T00:09:26.388Z,97439.13
2024-04-15T00:12:28.866Z,97440.78
2024-04-15T00:15:31.397Z,97434.91
2024-04-15T00:18:33.925Z,97426.56
2024-04-15T00:21:36.519Z,97417.97
2024-04-15T00:24:39.024Z,97412.34
2024-04-15T00:27:41.701Z,97415.59
2024-04-15T00:30:48.435Z,97407.34
2024-04-15T00:33:50.952Z,97398.47
2024-04-15T00:36:53.514Z,97391.47
2024-04-15T00:39:56.946Z,97385.91
2024-04-15T00:42:59.552Z,97375.53
2024-04-15T00:46:02.359Z,97378.63
2024-04-15T00:49:05.475Z,97372.94
2024-04-15T00:52:09.140Z,97363.78
2024-04-15T00:55:12.058Z,97370.19
2024-04-15T00:58:17.742Z,97356.81
2024-04-15T01:01:21.729Z,97350.94
2024-04-15T01:04:24.543Z,97350.41
2024-04-15T01:07:27.581Z,97340.53
2024-04-15T01:10:33.178Z,97331.44
2024-04-15T01:13:41.835Z,97338.63
2024-04-15T01:16:44.471Z,97319.72
2024-04-15T01:19:46.955Z,97321.38
2024-04-15T01:22:57.244Z,97321.91
2024-04-15T01:26:00.096Z,97318.06
2024-04-15T01:29:02.565Z,97322.50
2024-04-15T01:32:05.378Z,97311.56
2024-04-15T01:35:07.951Z,97312.13
2024-04-15T01:38:10.426Z,97301.25
2024-04-15T01:41:12.920Z,97298.31
2024-04-15T01:44:15.372Z,97292.59
2024-04-15T01:47:17.899Z,97290.97
2024-04-15T01:50:22.659Z,97278.41
2024-04-15T01:53:25.159Z,97275.22
2024-04-15T01:56:27.720Z,97263.88
2024-04-15T01:59:30.256Z,97262.72
2024-04-15T02:02:33.909Z,97258.44
2024-04-15T02:05:36.653Z,97241.03
2024-04-15T02:08:39.118Z,97235.97
2024-04-15T02:11:41.572Z,97233.03
2024-04-15T02:14:44.679Z,97227.19
2024-04-15T02:17:47.182Z,97211.44
2024-04-15T02:20:50.233Z,97207.75
2024-04-15T02:23:52.908Z,97202.63
2024-04-15T02:26:56.207Z,97207.94
2024-04-15T02:29:58.693Z,97187.16
2024-04-15T02:33:01.382Z,97185.00
2024-04-15T02:36:04.158Z,97183.41
2024-04-15T02:39:06.619Z,97167.38
2024-04-15T02:42:09.282Z,97159.88
2024-04-15T02:45:12.920Z,97165.50
2024-04-15T02:48:18.353Z,97154.84
2024-04-15T02:51:20.987Z,97148.72
2024-04-15T02:54:23.486Z,97151.66
2024-04-15T02:57:25.958Z,97139.63
2024-04-15T03:00:28.532Z,97114.78
2024-04-15T03:03:31.066Z,97112.41
2024-04-15T03:06:33.654Z,97116.97
2024-04-15T03:09:36.190Z,97104.38
2024-04-15T03:12:38.644Z,97106.81
2024-04-15T03:15:41.166Z,97102.28
2024-04-15T03:18:46.242Z,97095.63
2024-04-15T03:21:50.331Z,97084.16
2024-04-15T03:24:52.822Z,97087.34
2024-04-15T03:27:55.495Z,97084.97
2024-04-15T03:30:58.041Z,97082.28
2024-04-15T03:34:00.629Z,97089.25
2024-04-15T03:37:03.178Z,97089.56
2024-04-15T03:40:08.877Z,97086.31
2024-04-15T03:43:11.263Z,97083.13
2024-04-15T03:46:13.874Z,97077.78
2024-04-15T03:49:16.506Z,97079.97
2024-04-15T03:52:19.121Z,97070.09
2024-04-15T03:55:21.676Z,97076.22
2024-04-15T03:58:24.394Z,97068.69
2024-04-15T04:01:26.949Z,97074.06
2024-04-15T04:04:32.800Z,97069.03
2024-04-15T04:07:35.682Z,97053.53
2024-04-15T04:10:38.223Z,97062.59
2024-04-15T04:13:40.714Z,97057.00
2024-04-15T04:16:45.593Z,97041.78
2024-04-15T04:19:48.027Z,97061.81
2024-04-15T04:22:50.567Z,97059.44
2024-04-15T04:25:53.064Z,97057.56
2024-04-15T04:28:55.712Z,97054.09
2024-04-15T04:31:58.193Z,97061.31
2024-04-15T04:35:00.721Z,97056.22
2024-04-15T04:38:03.259Z,97061.03
2024-04-15T04:41:05.763Z,97057.28
2024-04-15T04:44:08.260Z,97051.66
2024-04-15T04:47:10.973Z,97062.09
2024-04-15T04:50:13.527Z,97053.00
2024-04-15T04:53:16.388Z,97057.03
2024-04-15T04:56:18.974Z,97046.59
2024-04-15T04:59:21.581Z,97048.22
2024-04-15T05:02:26.585Z,97054.34
2024-04-15T05:05:29.151Z,97046.56
2024-04-15T05:08:31.617Z,97052.44
2024-04-15T05:11:34.198Z,97054.81
2024-04-15T05:14:36.644Z,97052.13
2024-04-15T05:17:39.175Z,97062.78
2024-04-15T05:20:41.840Z,97057.13
2024-04-15T05:23:45.099Z,97062.78
2024-04-15T05:26:47.521Z,97066.94
2024-04-15T05:29:49.997Z,97068.56
2024-04-15T05:32:52.472Z,97056.16
2024-04-15T05:35:55.041Z,97059.66
2024-04-15T05:38:57.501Z,97052.97
2024-04-15T05:42:00.170Z,97048.06
2024-04-15T05:45:02.779Z,97049.75
2024-04-15T05:48:06.228Z,97043.75
2024-04-15T05:51:08.819Z,97052.47
2024-04-15T05:54:11.389Z,97048.50
2024-04-15T05:57:13.870Z,97042.06
2024-04-15T06:00:17.057Z,97047.91
2024-04-15T06:03:19.521Z,97036.78
2024-04-15T06:06:22.078Z,97028.97
2024-04-15T06:09:24.544Z,97020.53
2024-04-15T06:12:30.531Z,97021.41
2024-04-15T06:15:39.023Z,97006.97
2024-04-15T06:18:41.769Z,97006.59
2024-04-15T06:21:44.782Z,96999.47
2024-04-15T06:24:47.857Z,97005.00
2024-04-15T06:27:50.356Z,97002.91
2024-04-15T06:30:52.809Z,96995.47
2024-04-15T06:33:55.520Z,96994.88
2024-04-15T06:36:59.002Z,97001.13
2024-04-15T06:40:01.496Z,96991.22
2024-04-15T06:43:07.492Z,96989.81
2024-04-15T06:46:10.504Z,96990.69
2024-04-15T06:49:13.019Z,96985.47
2024-04-15T06:52:15.531Z,96975.75
2024-04-15T06:55:18.131Z,96975.44
2024-04-15T06:58:20.727Z,96971.06
2024-04-15T07:01:23.693Z,96972.88
2024-04-15T07:04:26.395Z,96976.81
2024-04-15T07:07:29.010Z,96968.06
2024-04-15T07:10:33.467Z,96962.88
2024-04-15T07:13:35.972Z,96980.06
2024-04-15T07:16:38.514Z,96979.78
2024-04-15T07:19:41.088Z,96978.69
2024-04-15T07:22:45.847Z,96988.41
2024-04-15T07:25:48.265Z,96976.53
2024-04-15T07:28:53.719Z,96991.94
2024-04-15T07:31:56.288Z,96979.81
2024-04-15T07:34:58.743Z,96990.66
2024-04-15T07:38:01.451Z,96993.84
2024-04-15T07:41:04.103Z,97014.84
2024-04-15T07:44:06.600Z,97004.06
2024-04-15T07:47:09.110Z,97024.22
2024-04-15T07:50:11.705Z,97014.22
2024-04-15T07:53:14.192Z,97027.97
2024-04-15T07:56:16.787Z,97015.66
2024-04-15T07:59:19.307Z,97026.31
2024-04-15T08:02:21.935Z,97025.56
2024-04-15T08:05:24.497Z,97030.00
2024-04-15T08:08:26.992Z,97023.94
2024-04-15T08:11:29.467Z,97037.63
2024-04-15T08:14:31.946Z,97045.84
2024-04-15T08:17:34.523Z,97051.56
2024-04-15T08:20:37.096Z,97042.44
2024-04-15T08:23:39.666Z,97053.47
2024-04-15T08:26:42.370Z,97040.75
2024-04-15T08:29:44.948Z,97070.78
2024-04-15T08:32:47.774Z,97079.16
2024-04-15T08:35:50.384Z,97065.66
2024-04-15T08:38:52.811Z,97084.78
2024-04-15T08:42:12.134Z,97082.41
2024-04-15T08:45:20.257Z,97072.94
2024-04-15T08:48:26.568Z,97078.81
2024-04-15T08:51:29.086Z,97092.66
2024-04-15T08:54:31.578Z,97093.78
2024-04-15T08:57:34.684Z,97106.84
2024-04-15T09:00:37.426Z,97107.97
2024-04-15T09:03:39.960Z,97092.19
2024-04-15T09:06:42.407Z,97097.25
2024-04-15T09:09:45.311Z,97097.28
2024-04-15T09:12:49.756Z,97110.81
2024-04-15T09:15:53.025Z,97117.91
2024-04-15T09:18:55.742Z,97116.63
2024-04-15T09:22:04.625Z,97118.72
2024-04-15T09:25:07.946Z,97118.59
2024-04-15T09:28:10.451Z,97117.63
2024-04-15T09:31:13.093Z,97099.16
2024-04-15T09:34:17.162Z,97106.50
2024-04-15T09:37:35.798Z,97116.03
2024-04-15T09:40:43.148Z,97114.91
2024-04-15T09:43:47.359Z,97114.59
2024-04-15T09:46:50.823Z,97121.13
2024-04-15T09:49:53.422Z,97123.16
2024-04-15T09:53:01.250Z,97124.00
2024-04-15T09:56:09.538Z,97124.59
2024-04-15T09:59:15.597Z,97135.44
2024-04-15T10:02:28.978Z,97136.19
2024-04-15T10:05:34.343Z,97119.84
2024-04-15T10:08:39.331Z,97104.09
2024-04-15T10:11:44.448Z,97097.53
2024-04-15T10:14:47.589Z,97096.25
2024-04-15T10:18:20.216Z,97084.84
2024-04-15T10:21:23.316Z,97069.28
2024-04-15T10:24:27.437Z,97052.94
2024-04-15T10:27:29.855Z,97047.38
2024-04-15T10:30:34.052Z,97047.09
2024-04-15T10:33:50.876Z,97047.56
2024-04-15T10:36:57.745Z,97051.47
2024-04-15T10:40:05.032Z,97052.28
2024-04-15T10:43:08.028Z,97053.84
2024-04-15T10:46:14.408Z,97052.59
2024-04-15T10:49:18.222Z,97052.44
2024-04-15T10:52:21.953Z,97050.91
2024-04-15T10:55:24.635Z,97043.50
2024-04-15T10:58:27.434Z,97032.16
2024-04-15T11:01:30.366Z,97027.56
2024-04-15T11:04:33.831Z,97028.88
2024-04-15T11:07:39.162Z,97028.25
2024-04-15T11:10:41.954Z,97028.38
2024-04-15T11:13:44.651Z,97027.75
2024-04-15T11:16:48.841Z,97014.25
2024-04-15T11:20:06.745Z,97039.38
2024-04-15T11:23:10.180Z,97021.09
2024-04-15T11:26:15.887Z,97027.91
2024-04-15T11:29:19.738Z,97022.47
2024-04-15T11:32:22.405Z,97023.94
2024-04-15T11:35:26.710Z,97018.22
2024-04-15T11:38:29.459Z,97009.31
2024-04-15T11:41:31.998Z,97020.63
2024-04-15T11:44:37.060Z,97006.75
2024-04-15T11:47:39.693Z,97003.75
2024-04-15T11:50:44.433Z,97000.69
2024-04-15T11:53:49.624Z,96992.59
2024-04-15T11:56:52.205Z,96993.25
2024-04-15T11:59:59.266Z,96995.50
2024-04-15T12:03:01.732Z,96986.38
2024-04-15T12:06:06.943Z,96994.81
2024-04-15T12:09:09.761Z,96999.22
2024-04-15T12:12:12.272Z,97001.63
2024-04-15T12:15:15.487Z,96987.78
2024-04-15T12:18:18.348Z,96970.06
2024-04-15T12:21:21.034Z,96978.66
2024-04-15T12:24:24.155Z,96973.25
2024-04-15T12:27:28.794Z,96981.84
2024-04-15T12:30:33.116Z,96973.75
2024-04-15T12:33:35.688Z,96967.69
2024-04-15T12:36:38.269Z,96972.44
2024-04-15T12:39:41.936Z,96974.25
2024-04-15T12:42:44.387Z,96973.06
2024-04-15T12:45:46.872Z,96975.94
2024-04-15T12:48:49.530Z,96973.97
2024-04-15T12:51:52.173Z,96953.78
2024-04-15T12:54:54.744Z,96955.88
2024-04-15T12:57:57.301Z,96944.38
2024-04-15T13:01:00.634Z,96925.75
2024-04-15T13:04:05.473Z,96921.16
2024-04-15T13:07:08.691Z,96927.81
2024-04-15T13:10:11.404Z,96919.66
2024-04-15T13:13:13.988Z,96921.47
2024-04-15T13:16:16.760Z,96918.34
2024-04-15T13:19:19.393Z,96906.34
2024-04-15T13:22:22.153Z,96917.66
2024-04-15T13:25:24.831Z,96918.25
2024-04-15T13:28:27.502Z,96930.16
2024-04-15T13:31:30.034Z,96919.84
2024-04-15T13:34:33.073Z,96928.00
2024-04-15T13:37:35.786Z,96920.25
2024-04-15T13:40:38.321Z,96911.75
2024-04-15T13:43:40.862Z,96899.72
2024-04-15T13:46:43.562Z,96892.53
2024-04-15T13:49:46.058Z,96935.81
2024-04-15T13:52:48.546Z,96975.44
2024-04-15T13:55:51.436Z,96964.91
2024-04-15T13:58:54.312Z,96946.19
2024-04-15T14:01:58.115Z,96953.94
2024-04-15T14:05:01.052Z,96919.06
2024-04-15T14:08:03.764Z,96940.78
2024-04-15T14:11:06.608Z,96920.66
2024-04-15T14:14:09.089Z,96911.13
2024-04-15T14:17:13.808Z,96875.63
2024-04-15T14:20:16.375Z,96878.97
2024-04-15T14:23:19.066Z,96876.06
2024-04-15T14:26:22.614Z,96857.88
2024-04-15T14:29:26.487Z,96865.25
2024-04-15T14:32:29.558Z,96850.31
2024-04-15T14:35:32.712Z,96863.13
2024-04-15T14:38:35.254Z,96872.50
2024-04-15T14:41:37.761Z,96877.59
2024-04-15T14:44:40.311Z,96876.38
2024-04-15T14:47:43.505Z,96867.78
2024-04-15T14:50:46.188Z,96841.81
2024-04-15T14:53:48.949Z,96835.00
2024-04-15T14:56:51.713Z,96868.81
2024-04-15T14:59:54.516Z,96862.41
2024-04-15T15:02:57.071Z,96843.72
2024-04-15T15:06:00.189Z,96828.78
2024-04-15T15:09:02.834Z,96841.91
2024-04-15T15:12:05.733Z,96811.25
2024-04-15T15:15:08.422Z,96805.88
2024-04-15T15:18:11.119Z,96801.59
2024-04-15T15:21:23.227Z,96800.50
2024-04-15T15:24:29.614Z,96798.94
2024-04-15T15:27:32.256Z,96781.88
2024-04-15T15:30:34.747Z,96770.94
2024-04-15T15:33:37.288Z,96769.06
2024-04-15T15:36:39.966Z,96766.28
2024-04-15T15:39:42.610Z,96762.56
2024-04-15T15:42:46.382Z,96762.13
2024-04-15T15:45:50.253Z,96772.25
2024-04-15T15:48:53.503Z,96778.44
2024-04-15T15:52:06.147Z,96775.53
2024-04-15T15:55:11.211Z,96769.41
2024-04-15T15:58:13.983Z,96764.06
2024-04-15T16:01:16.598Z,96749.34
2024-04-15T16:04:19.345Z,96748.84
2024-04-15T16:07:21.938Z,96746.13
2024-04-15T16:10:25.202Z,96735.31
2024-04-15T16:13:27.966Z,96723.59
2024-04-15T16:16:30.678Z,96711.91
2024-04-15T16:19:33.263Z,96724.78
2024-04-15T16:22:35.763Z,96723.41
2024-04-15T16:25:38.313Z,96702.44
2024-04-15T16:28:46.859Z,96701.50
2024-04-15T16:31:49.389Z,96688.44
2024-04-15T16:34:51.975Z,96700.56
2024-04-15T16:37:54.570Z,96727.84
2024-04-15T16:40:57.151Z,96714.06
2024-04-15T16:43:59.666Z,96715.03
2024-04-15T16:47:02.252Z,96701.91
2024-04-15T16:50:05.088Z,96689.44
2024-04-15T16:53:07.563Z,96688.00
2024-04-15T16:56:10.264Z,96674.19
2024-04-15T16:59:12.953Z,96671.47
2024-04-15T17:02:15.606Z,96668.78
2024-04-15T17:05:18.692Z,96658.34
2024-04-15T17:08:21.420Z,96665.16
2024-04-15T17:11:24.203Z,96675.00
2024-04-15T17:14:27.100Z,96637.44
2024-04-15T17:17:29.883Z,96652.84
2024-04-15T17:20:32.824Z,96652.59
2024-04-15T17:23:35.489Z,96651.78
2024-04-15T17:26:39.178Z,96643.00
2024-04-15T17:29:42.244Z,96644.84
2024-04-15T17:32:45.694Z,96644.84
2024-04-15T17:35:49.241Z,96646.47
2024-04-15T17:38:52.162Z,96635.22
2024-04-15T17:41:55.225Z,96640.31
2024-04-15T17:44:58.234Z,96642.50
2024-04-15T17:48:01.344Z,96632.38
2024-04-15T17:51:06.020Z,96640.63
2024-04-15T17:54:13.695Z,96645.16
2024-04-15T17:57:18.050Z,96629.47
2024-04-15T18:00:21.352Z,96648.13
2024-04-15T18:03:24.776Z,96621.69
2024-04-15T18:06:27.899Z,96603.00
2024-04-15T18:09:30.937Z,96597.38
2024-04-15T18:12:34.011Z,96602.84
2024-04-15T18:15:37.688Z,96631.19
2024-04-15T18:18:42.611Z,96639.75
2024-04-15T18:21:47.929Z,96622.06
2024-04-15T18:24:51.189Z,96622.09
2024-04-15T18:27:54.370Z,96603.78
2024-04-15T18:30:57.240Z,96605.81
2024-04-15T18:34:00.860Z,96597.00
2024-04-15T18:37:04.018Z,96592.75
2024-04-15T18:40:07.844Z,96596.22
2024-04-15T18:43:11.123Z,96589.88
2024-04-15T18:46:14.567Z,96593.88
2024-04-15T18:49:17.403Z,96587.22
2024-04-15T18:52:20.720Z,96593.63
2024-04-15T18:55:24.157Z,96584.31
2024-04-15T18:58:27.180Z,96584.88
2024-04-15T19:01:30.416Z,96580.31
2024-04-15T19:04:34.565Z,96585.94
2024-04-15T19:07:41.976Z,96579.50
2024-04-15T19:10:45.222Z,96584.88
2024-04-15T19:13:48.710Z,96578.75
2024-04-15T19:16:51.683Z,96564.59
2024-04-15T19:19:55.302Z,96566.69
2024-04-15T19:22:58.528Z,96565.09
2024-04-15T19:26:01.532Z,96558.72
2024-04-15T19:29:07.010Z,96554.16
2024-04-15T19:32:10.884Z,96550.75
2024-04-15T19:35:14.713Z,96550.50
2024-04-15T19:38:17.495Z,96546.78
2024-04-15T19:41:21.056Z,96548.38
2024-04-15T19:44:24.963Z,96547.63
2024-04-15T19:47:31.589Z,96541.44
2024-04-15T19:50:34.278Z,96527.56
2024-04-15T19:53:37.895Z,96533.19
2024-04-15T19:56:43.380Z,96534.56
2024-04-15T19:59:46.386Z,96531.88
2024-04-15T20:02:49.496Z,96524.22
2024-04-15T20:05:52.407Z,96525.50
2024-04-15T20:08:55.049Z,96530.31
2024-04-15T20:11:57.573Z,96532.47
2024-04-15T20:15:01.397Z,96515.75
2024-04-15T20:18:23.577Z,96510.81
2024-04-15T20:21:26.225Z,96498.84
2024-04-15T20:24:28.651Z,96507.66
2024-04-15T20:27:31.209Z,96491.34
2024-04-15T20:30:33.992Z,96499.06
2024-04-15T20:33:36.512Z,96494.56
2024-04-15T20:36:39.255Z,96489.75
2024-04-15T20:39:41.897Z,96488.38
2024-04-15T20:42:44.412Z,96493.50
2024-04-15T20:45:49.834Z,96475.72
2024-04-15T20:48:52.427Z,96492.72
2024-04-15T20:51:55.166Z,96491.91
2024-04-15T20:54:57.756Z,96474.59
2024-04-15T20:58:00.374Z,96468.75
2024-04-15T21:01:04.836Z,96467.91
2024-04-15T21:04:14.529Z,96481.22
2024-04-15T21:07:21.479Z,96464.75
2024-04-15T21:10:24.376Z,96471.66
2024-04-15T21:13:27.076Z,96478.59
2024-04-15T21:16:29.761Z,96479.19
2024-04-15T21:19:32.320Z,96496.28
2024-04-15T21:22:36.871Z,96501.59
2024-04-15T21:25:40.655Z,96495.44
2024-04-15T21:28:43.236Z,96513.53
2024-04-15T21:31:45.715Z,96480.84
2024-04-15T21:34:48.305Z,96488.22
2024-04-15T21:37:51.090Z,96501.31
2024-04-15T21:40:53.536Z,96502.13
2024-04-15T21:43:56.148Z,96506.09
2024-04-15T21:46:58.849Z,96501.28
2024-04-15T21:50:01.425Z,96508.19
2024-04-15T21:53:04.015Z,96510.88
2024-04-15T21:56:06.870Z,96517.59
2024-04-15T21:59:09.432Z,96516.50
2024-04-15T22:02:11.934Z,96526.38
2024-04-15T22:05:14.614Z,96513.66
2024-04-15T22:08:17.172Z,96536.31
2024-04-15T22:11:19.710Z,96528.56
2024-04-15T22:14:22.216Z,96511.19
2024-04-15T22:17:34.480Z,96516.22
2024-04-15T22:20:37.194Z,96519.47
2024-04-15T22:23:39.702Z,96498.72
2024-04-15T22:26:42.218Z,96499.94
2024-04-15T22:29:45.090Z,96478.59
2024-04-15T22:32:47.811Z,96469.28
2024-04-15T22:35:50.976Z,96454.63
2024-04-15T22:38:53.509Z,96454.91
2024-04-15T22:41:57.569Z,96462.91
2024-04-15T22:45:00.500Z,96462.38
2024-04-15T22:48:03.044Z,96460.78
2024-04-15T22:51:05.919Z,96452.78
2024-04-15T22:54:09.609Z,96444.81
2024-04-15T22:57:12.098Z,96440.31
2024-04-15T23:00:14.972Z,96446.47
2024-04-15T23:03:18.002Z,96442.47
2024-04-15T23:06:20.852Z,96441.16
2024-04-15T23:09:24.118Z,96442.00
2024-04-15T23:12:26.649Z,96448.66
2024-04-15T23:15:29.282Z,96438.28
2024-04-15T23:18:34.152Z,96447.63
2024-04-15T23:21:36.726Z,96450.09
2024-04-15T23:24:41.922Z,96457.84
2024-04-15T23:27:44.369Z,96459.47
2024-04-15T23:30:57.452Z,96466.38
2024-04-15T23:34:00.938Z,96461.03
2024-04-15T23:37:03.421Z,96466.94
2024-04-15T23:40:06.468Z,96456.81
2024-04-15T23:43:09.040Z,96445.69
2024-04-15T23:46:30.000Z,96457.88
2024-04-15T23:49:51.066Z,96449.06
2024-04-15T23:53:12.232Z,96460.53
2024-04-15T23:56:33.271Z,96453.63
2024-04-15T23:59:35.741Z,96425.69
